sensor_id;sensor_type;location;lat;lon;timestamp;P1;durP1;ratioP1;P2;durP2;ratioP2
44438;SDS011;30145;48.874;10.186;2023-02-11T00:00:43;30.77;;;16.77;;
44438;SDS011;30145;48.874;10.186;2023-02-11T00:03:10;29.07;;;16.37;;
44438;SDS011;30145;48.874;10.186;2023-02-11T00:05:37;31.17;;;18.23;;
44438;SDS011;30145;48.874;10.186;2023-02-11T00:08:04;27.30;;;16.60;;
44438;SDS011;30145;48.874;10.186;2023-02-11T00:10:31;28.67;;;16.93;;
44438;SDS011;30145;48.874;10.186;2023-02-11T00:12:58;27.03;;;16.70;;
44438;SDS011;30145;48.874;10.186;2023-02-11T00:15:24;28.33;;;16.30;;
44438;SDS011;30145;48.874;10.186;2023-02-11T00:17:51;34.73;;;18.10;;
44438;SDS011;30145;48.874;10.186;2023-02-11T00:20:18;37.97;;;20.00;;
44438;SDS011;30145;48.874;10.186;2023-02-11T00:22:45;33.87;;;19.37;;
44438;SDS011;30145;48.874;10.186;2023-02-11T00:25:13;34.80;;;21.07;;
44438;SDS011;30145;48.874;10.186;2023-02-11T00:27:40;32.27;;;19.77;;
44438;SDS011;30145;48.874;10.186;2023-02-11T00:30:07;32.80;;;19.93;;
44438;SDS011;30145;48.874;10.186;2023-02-11T00:32:34;30.37;;;17.63;;
44438;SDS011;30145;48.874;10.186;2023-02-11T00:35:01;27.70;;;16.07;;
44438;SDS011;30145;48.874;10.186;2023-02-11T00:37:28;32.77;;;15.67;;
44438;SDS011;30145;48.874;10.186;2023-02-11T00:39:55;27.47;;;15.10;;
44438;SDS011;30145;48.874;10.186;2023-02-11T00:42:22;29.60;;;15.27;;
44438;SDS011;30145;48.874;10.186;2023-02-11T00:44:49;24.97;;;13.97;;
44438;SDS011;30145;48.874;10.186;2023-02-11T00:47:16;32.93;;;15.43;;
44438;SDS011;30145;48.874;10.186;2023-02-11T00:49:43;26.30;;;15.20;;
44438;SDS011;30145;48.874;10.186;2023-02-11T00:52:10;27.10;;;15.37;;
44438;SDS011;30145;48.874;10.186;2023-02-11T00:54:37;25.53;;;14.17;;
44438;SDS011;30145;48.874;10.186;2023-02-11T00:57:04;25.27;;;14.00;;
44438;SDS011;30145;48.874;10.186;2023-02-11T00:59:31;22.87;;;12.83;;
44438;SDS011;30145;48.874;10.186;2023-02-11T01:01:58;29.37;;;14.70;;
44438;SDS011;30145;48.874;10.186;2023-02-11T01:04:25;23.60;;;14.37;;
44438;SDS011;30145;48.874;10.186;2023-02-11T01:06:52;24.77;;;14.43;;
44438;SDS011;30145;48.874;10.186;2023-02-11T01:09:19;25.57;;;14.33;;
44438;SDS011;30145;48.874;10.186;2023-02-11T01:11:46;23.87;;;13.33;;
44438;SDS011;30145;48.874;10.186;2023-02-11T01:14:14;26.70;;;15.30;;
44438;SDS011;30145;48.874;10.186;2023-02-11T01:16:41;27.87;;;16.27;;
44438;SDS011;30145;48.874;10.186;2023-02-11T01:19:08;27.87;;;14.43;;
44438;SDS011;30145;48.874;10.186;2023-02-11T01:21:35;25.73;;;14.97;;
44438;SDS011;30145;48.874;10.186;2023-02-11T01:24:02;24.70;;;14.13;;
44438;SDS011;30145;48.874;10.186;2023-02-11T01:26:30;22.17;;;13.50;;
44438;SDS011;30145;48.874;10.186;2023-02-11T01:28:57;22.97;;;13.60;;
44438;SDS011;30145;48.874;10.186;2023-02-11T01:31:26;24.80;;;15.10;;
44438;SDS011;30145;48.874;10.186;2023-02-11T01:33:53;24.47;;;15.13;;
44438;SDS011;30145;48.874;10.186;2023-02-11T01:36:20;24.93;;;14.20;;
44438;SDS011;30145;48.874;10.186;2023-02-11T01:38:47;23.33;;;14.83;;
44438;SDS011;30145;48.874;10.186;2023-02-11T01:41:15;23.83;;;14.13;;
44438;SDS011;30145;48.874;10.186;2023-02-11T01:43:44;25.33;;;14.57;;
44438;SDS011;30145;48.874;10.186;2023-02-11T01:48:50;22.80;;;13.60;;
44438;SDS011;30145;48.874;10.186;2023-02-11T01:51:27;27.47;;;15.33;;
44438;SDS011;30145;48.874;10.186;2023-02-11T01:53:58;26.00;;;15.00;;
44438;SDS011;30145;48.874;10.186;2023-02-11T01:56:45;24.30;;;14.47;;
44438;SDS011;30145;48.874;10.186;2023-02-11T01:59:34;33.23;;;17.73;;
44438;SDS011;30145;48.874;10.186;2023-02-11T02:02:06;30.67;;;16.73;;
44438;SDS011;30145;48.874;10.186;2023-02-11T02:04:37;30.77;;;18.37;;
44438;SDS011;30145;48.874;10.186;2023-02-11T02:07:10;30.10;;;16.27;;
44438;SDS011;30145;48.874;10.186;2023-02-11T02:09:41;28.90;;;16.77;;
44438;SDS011;30145;48.874;10.186;2023-02-11T02:12:10;27.17;;;17.03;;
44438;SDS011;30145;48.874;10.186;2023-02-11T02:14:38;28.27;;;16.90;;
44438;SDS011;30145;48.874;10.186;2023-02-11T02:17:29;28.90;;;16.40;;
44438;SDS011;30145;48.874;10.186;2023-02-11T02:20:17;28.47;;;16.03;;
44438;SDS011;30145;48.874;10.186;2023-02-11T02:31:39;24.50;;;13.43;;
44438;SDS011;30145;48.874;10.186;2023-02-11T02:37:09;21.30;;;13.33;;
44438;SDS011;30145;48.874;10.186;2023-02-11T02:39:42;22.93;;;13.10;;
44438;SDS011;30145;48.874;10.186;2023-02-11T02:42:11;21.97;;;12.77;;
44438;SDS011;30145;48.874;10.186;2023-02-11T02:44:39;22.17;;;13.77;;
44438;SDS011;30145;48.874;10.186;2023-02-11T02:47:06;23.93;;;13.70;;
44438;SDS011;30145;48.874;10.186;2023-02-11T02:49:33;23.47;;;14.20;;
44438;SDS011;30145;48.874;10.186;2023-02-11T02:57:23;26.37;;;14.63;;
44438;SDS011;30145;48.874;10.186;2023-02-11T03:02:34;24.50;;;14.90;;
44438;SDS011;30145;48.874;10.186;2023-02-11T03:05:15;24.80;;;15.00;;
44438;SDS011;30145;48.874;10.186;2023-02-11T03:08:17;28.50;;;16.03;;
44438;SDS011;30145;48.874;10.186;2023-02-11T03:10:49;23.63;;;15.23;;
44438;SDS011;30145;48.874;10.186;2023-02-11T03:13:18;25.03;;;15.13;;
44438;SDS011;30145;48.874;10.186;2023-02-11T03:15:49;24.33;;;14.47;;
44438;SDS011;30145;48.874;10.186;2023-02-11T03:18:25;28.27;;;16.07;;
44438;SDS011;30145;48.874;10.186;2023-02-11T03:20:53;25.03;;;15.43;;
44438;SDS011;30145;48.874;10.186;2023-02-11T03:26:00;24.17;;;15.77;;
44438;SDS011;30145;48.874;10.186;2023-02-11T03:28:30;29.90;;;16.27;;
44438;SDS011;30145;48.874;10.186;2023-02-11T03:31:08;26.37;;;15.70;;
44438;SDS011;30145;48.874;10.186;2023-02-11T03:33:54;29.43;;;16.47;;
44438;SDS011;30145;48.874;10.186;2023-02-11T03:36:27;26.97;;;17.00;;
44438;SDS011;30145;48.874;10.186;2023-02-11T03:39:18;27.17;;;16.93;;
44438;SDS011;30145;48.874;10.186;2023-02-11T03:41:48;29.37;;;17.93;;
44438;SDS011;30145;48.874;10.186;2023-02-11T03:44:16;31.60;;;19.20;;
44438;SDS011;30145;48.874;10.186;2023-02-11T03:46:47;34.20;;;17.87;;
44438;SDS011;30145;48.874;10.186;2023-02-11T03:49:16;34.57;;;19.53;;
44438;SDS011;30145;48.874;10.186;2023-02-11T03:51:45;34.90;;;19.90;;
44438;SDS011;30145;48.874;10.186;2023-02-11T03:54:16;30.53;;;18.50;;
44438;SDS011;30145;48.874;10.186;2023-02-11T03:56:50;33.77;;;20.10;;
44438;SDS011;30145;48.874;10.186;2023-02-11T03:59:18;25.00;;;16.97;;
44438;SDS011;30145;48.874;10.186;2023-02-11T04:01:46;26.03;;;14.47;;
44438;SDS011;30145;48.874;10.186;2023-02-11T04:04:13;22.57;;;13.37;;
44438;SDS011;30145;48.874;10.186;2023-02-11T04:06:40;21.83;;;12.80;;
44438;SDS011;30145;48.874;10.186;2023-02-11T04:09:07;20.20;;;11.43;;
44438;SDS011;30145;48.874;10.186;2023-02-11T04:11:34;25.80;;;15.00;;
44438;SDS011;30145;48.874;10.186;2023-02-11T04:14:01;24.17;;;13.40;;
44438;SDS011;30145;48.874;10.186;2023-02-11T04:16:28;21.13;;;13.00;;
44438;SDS011;30145;48.874;10.186;2023-02-11T04:18:56;23.83;;;14.13;;
44438;SDS011;30145;48.874;10.186;2023-02-11T04:21:23;20.70;;;12.90;;
44438;SDS011;30145;48.874;10.186;2023-02-11T04:23:50;17.77;;;10.87;;
44438;SDS011;30145;48.874;10.186;2023-02-11T04:26:17;16.90;;;10.93;;
44438;SDS011;30145;48.874;10.186;2023-02-11T04:28:44;15.83;;;9.00;;
44438;SDS011;30145;48.874;10.186;2023-02-11T04:31:11;13.03;;;8.70;;
44438;SDS011;30145;48.874;10.186;2023-02-11T04:33:38;13.07;;;8.13;;
44438;SDS011;30145;48.874;10.186;2023-02-11T04:36:05;11.60;;;7.27;;
44438;SDS011;30145;48.874;10.186;2023-02-11T04:38:33;11.90;;;7.40;;
44438;SDS011;30145;48.874;10.186;2023-02-11T04:40:59;14.30;;;7.93;;
44438;SDS011;30145;48.874;10.186;2023-02-11T04:43:27;15.73;;;9.77;;
44438;SDS011;30145;48.874;10.186;2023-02-11T04:45:56;18.77;;;10.90;;
44438;SDS011;30145;48.874;10.186;2023-02-11T04:48:24;15.80;;;9.83;;
44438;SDS011;30145;48.874;10.186;2023-02-11T04:50:52;15.10;;;9.87;;
44438;SDS011;30145;48.874;10.186;2023-02-11T04:53:19;17.33;;;10.10;;
44438;SDS011;30145;48.874;10.186;2023-02-11T04:55:49;19.23;;;10.63;;
44438;SDS011;30145;48.874;10.186;2023-02-11T04:58:17;15.73;;;10.50;;
44438;SDS011;30145;48.874;10.186;2023-02-11T05:00:44;15.63;;;10.27;;
44438;SDS011;30145;48.874;10.186;2023-02-11T05:03:12;14.43;;;9.47;;
44438;SDS011;30145;48.874;10.186;2023-02-11T05:05:42;16.20;;;9.60;;
44438;SDS011;30145;48.874;10.186;2023-02-11T05:08:09;18.00;;;11.43;;
44438;SDS011;30145;48.874;10.186;2023-02-11T05:10:36;14.10;;;8.70;;
44438;SDS011;30145;48.874;10.186;2023-02-11T05:13:03;17.47;;;10.77;;
44438;SDS011;30145;48.874;10.186;2023-02-11T05:15:31;18.23;;;11.90;;
44438;SDS011;30145;48.874;10.186;2023-02-11T05:17:58;17.93;;;11.20;;
44438;SDS011;30145;48.874;10.186;2023-02-11T05:20:25;19.33;;;10.83;;
44438;SDS011;30145;48.874;10.186;2023-02-11T05:22:52;15.93;;;10.27;;
44438;SDS011;30145;48.874;10.186;2023-02-11T05:25:19;18.07;;;11.40;;
44438;SDS011;30145;48.874;10.186;2023-02-11T05:27:46;21.90;;;11.10;;
44438;SDS011;30145;48.874;10.186;2023-02-11T05:30:13;18.37;;;11.90;;
44438;SDS011;30145;48.874;10.186;2023-02-11T05:32:40;18.03;;;12.10;;
44438;SDS011;30145;48.874;10.186;2023-02-11T05:35:07;19.73;;;12.43;;
44438;SDS011;30145;48.874;10.186;2023-02-11T05:37:35;18.73;;;11.63;;
44438;SDS011;30145;48.874;10.186;2023-02-11T05:40:02;18.10;;;11.53;;
44438;SDS011;30145;48.874;10.186;2023-02-11T05:42:29;16.50;;;9.93;;
44438;SDS011;30145;48.874;10.186;2023-02-11T05:44:56;17.90;;;11.13;;
44438;SDS011;30145;48.874;10.186;2023-02-11T05:47:23;17.57;;;11.17;;
44438;SDS011;30145;48.874;10.186;2023-02-11T05:49:50;17.67;;;10.57;;
44438;SDS011;30145;48.874;10.186;2023-02-11T05:52:19;16.00;;;9.50;;
44438;SDS011;30145;48.874;10.186;2023-02-11T05:54:47;15.53;;;10.10;;
44438;SDS011;30145;48.874;10.186;2023-02-11T05:57:15;16.13;;;9.97;;
44438;SDS011;30145;48.874;10.186;2023-02-11T05:59:42;15.47;;;9.33;;
44438;SDS011;30145;48.874;10.186;2023-02-11T06:02:09;17.43;;;9.20;;
44438;SDS011;30145;48.874;10.186;2023-02-11T06:04:36;13.53;;;8.27;;
44438;SDS011;30145;48.874;10.186;2023-02-11T06:07:03;14.73;;;8.27;;
44438;SDS011;30145;48.874;10.186;2023-02-11T06:09:30;12.07;;;8.17;;
44438;SDS011;30145;48.874;10.186;2023-02-11T06:11:58;10.80;;;6.80;;
44438;SDS011;30145;48.874;10.186;2023-02-11T06:14:25;10.17;;;6.50;;
44438;SDS011;30145;48.874;10.186;2023-02-11T06:16:52;10.87;;;7.17;;
44438;SDS011;30145;48.874;10.186;2023-02-11T06:19:19;9.93;;;6.83;;
44438;SDS011;30145;48.874;10.186;2023-02-11T06:21:46;8.50;;;4.80;;
44438;SDS011;30145;48.874;10.186;2023-02-11T06:24:13;7.37;;;5.00;;
44438;SDS011;30145;48.874;10.186;2023-02-11T06:26:41;7.40;;;4.70;;
44438;SDS011;30145;48.874;10.186;2023-02-11T06:29:08;5.97;;;4.73;;
44438;SDS011;30145;48.874;10.186;2023-02-11T06:31:36;8.43;;;5.07;;
44438;SDS011;30145;48.874;10.186;2023-02-11T06:34:03;8.60;;;5.63;;
44438;SDS011;30145;48.874;10.186;2023-02-11T06:36:30;9.63;;;5.67;;
44438;SDS011;30145;48.874;10.186;2023-02-11T06:38:57;7.40;;;5.10;;
44438;SDS011;30145;48.874;10.186;2023-02-11T06:41:25;5.83;;;4.13;;
44438;SDS011;30145;48.874;10.186;2023-02-11T06:43:52;7.23;;;5.00;;
44438;SDS011;30145;48.874;10.186;2023-02-11T06:46:20;7.83;;;5.17;;
44438;SDS011;30145;48.874;10.186;2023-02-11T06:48:47;8.50;;;5.10;;
44438;SDS011;30145;48.874;10.186;2023-02-11T06:51:14;7.70;;;5.40;;
44438;SDS011;30145;48.874;10.186;2023-02-11T06:53:42;7.87;;;5.87;;
44438;SDS011;30145;48.874;10.186;2023-02-11T06:56:12;8.53;;;5.70;;
44438;SDS011;30145;48.874;10.186;2023-02-11T06:58:40;8.80;;;5.60;;
44438;SDS011;30145;48.874;10.186;2023-02-11T07:01:09;7.37;;;4.97;;
44438;SDS011;30145;48.874;10.186;2023-02-11T07:03:39;10.80;;;5.50;;
44438;SDS011;30145;48.874;10.186;2023-02-11T07:06:10;8.57;;;5.17;;
44438;SDS011;30145;48.874;10.186;2023-02-11T07:08:39;6.33;;;4.60;;
44438;SDS011;30145;48.874;10.186;2023-02-11T07:11:09;10.33;;;5.20;;
44438;SDS011;30145;48.874;10.186;2023-02-11T07:13:37;8.50;;;5.20;;
44438;SDS011;30145;48.874;10.186;2023-02-11T07:16:08;6.83;;;5.10;;
44438;SDS011;30145;48.874;10.186;2023-02-11T07:18:37;9.17;;;5.80;;
44438;SDS011;30145;48.874;10.186;2023-02-11T07:21:07;9.80;;;5.00;;
44438;SDS011;30145;48.874;10.186;2023-02-11T07:23:36;6.47;;;4.40;;
44438;SDS011;30145;48.874;10.186;2023-02-11T07:26:03;5.97;;;4.07;;
44438;SDS011;30145;48.874;10.186;2023-02-11T07:28:34;5.97;;;4.13;;
44438;SDS011;30145;48.874;10.186;2023-02-11T07:31:13;6.43;;;4.10;;
44438;SDS011;30145;48.874;10.186;2023-02-11T07:33:42;5.53;;;3.90;;
44438;SDS011;30145;48.874;10.186;2023-02-11T07:36:12;6.40;;;4.20;;
44438;SDS011;30145;48.874;10.186;2023-02-11T07:38:39;4.60;;;3.83;;
44438;SDS011;30145;48.874;10.186;2023-02-11T07:41:08;5.87;;;3.43;;
44438;SDS011;30145;48.874;10.186;2023-02-11T07:43:36;8.47;;;4.80;;
44438;SDS011;30145;48.874;10.186;2023-02-11T07:46:05;15.00;;;8.70;;
44438;SDS011;30145;48.874;10.186;2023-02-11T07:48:53;7.60;;;5.13;;
44438;SDS011;30145;48.874;10.186;2023-02-11T07:51:22;7.93;;;4.80;;
44438;SDS011;30145;48.874;10.186;2023-02-11T07:53:51;7.57;;;5.10;;
44438;SDS011;30145;48.874;10.186;2023-02-11T07:56:19;8.97;;;6.20;;
44438;SDS011;30145;48.874;10.186;2023-02-11T07:58:47;16.07;;;8.50;;
44438;SDS011;30145;48.874;10.186;2023-02-11T08:01:21;5.70;;;4.53;;
44438;SDS011;30145;48.874;10.186;2023-02-11T08:03:51;11.60;;;7.33;;
44438;SDS011;30145;48.874;10.186;2023-02-11T08:06:19;8.67;;;5.17;;
44438;SDS011;30145;48.874;10.186;2023-02-11T08:08:47;8.67;;;5.63;;
44438;SDS011;30145;48.874;10.186;2023-02-11T08:11:16;5.47;;;4.27;;
44438;SDS011;30145;48.874;10.186;2023-02-11T08:13:44;7.27;;;4.90;;
44438;SDS011;30145;48.874;10.186;2023-02-11T08:16:27;5.67;;;4.23;;
44438;SDS011;30145;48.874;10.186;2023-02-11T08:18:58;7.87;;;5.10;;
44438;SDS011;30145;48.874;10.186;2023-02-11T08:21:26;7.27;;;4.73;;
44438;SDS011;30145;48.874;10.186;2023-02-11T08:23:54;5.70;;;4.53;;
44438;SDS011;30145;48.874;10.186;2023-02-11T08:26:22;5.57;;;4.07;;
44438;SDS011;30145;48.874;10.186;2023-02-11T08:28:51;8.47;;;5.60;;
44438;SDS011;30145;48.874;10.186;2023-02-11T08:31:20;7.90;;;6.67;;
44438;SDS011;30145;48.874;10.186;2023-02-11T08:33:55;5.60;;;4.27;;
44438;SDS011;30145;48.874;10.186;2023-02-11T08:36:25;8.40;;;5.07;;
44438;SDS011;30145;48.874;10.186;2023-02-11T08:39:04;5.50;;;3.90;;
44438;SDS011;30145;48.874;10.186;2023-02-11T08:41:48;5.63;;;3.70;;
44438;SDS011;30145;48.874;10.186;2023-02-11T08:44:20;5.50;;;3.33;;
44438;SDS011;30145;48.874;10.186;2023-02-11T08:46:48;4.57;;;3.47;;
44438;SDS011;30145;48.874;10.186;2023-02-11T08:49:16;6.10;;;4.83;;
44438;SDS011;30145;48.874;10.186;2023-02-11T08:51:43;9.30;;;5.70;;
44438;SDS011;30145;48.874;10.186;2023-02-11T08:54:10;5.73;;;4.30;;
44438;SDS011;30145;48.874;10.186;2023-02-11T08:56:38;8.53;;;5.40;;
44438;SDS011;30145;48.874;10.186;2023-02-11T08:59:06;5.33;;;3.90;;
44438;SDS011;30145;48.874;10.186;2023-02-11T09:01:35;4.73;;;3.53;;
44438;SDS011;30145;48.874;10.186;2023-02-11T09:04:02;7.07;;;4.00;;
44438;SDS011;30145;48.874;10.186;2023-02-11T09:06:29;7.80;;;3.73;;
44438;SDS011;30145;48.874;10.186;2023-02-11T09:08:57;6.23;;;3.93;;
44438;SDS011;30145;48.874;10.186;2023-02-11T09:11:27;5.57;;;3.97;;
44438;SDS011;30145;48.874;10.186;2023-02-11T09:13:55;6.17;;;3.80;;
44438;SDS011;30145;48.874;10.186;2023-02-11T09:16:24;4.80;;;3.13;;
44438;SDS011;30145;48.874;10.186;2023-02-11T09:18:57;3.77;;;2.97;;
44438;SDS011;30145;48.874;10.186;2023-02-11T09:21:24;3.87;;;2.80;;
44438;SDS011;30145;48.874;10.186;2023-02-11T09:23:52;4.33;;;2.90;;
44438;SDS011;30145;48.874;10.186;2023-02-11T09:26:24;4.97;;;2.80;;
44438;SDS011;30145;48.874;10.186;2023-02-11T09:28:53;5.53;;;3.40;;
44438;SDS011;30145;48.874;10.186;2023-02-11T09:31:22;3.77;;;3.07;;
44438;SDS011;30145;48.874;10.186;2023-02-11T09:33:52;4.93;;;2.40;;
44438;SDS011;30145;48.874;10.186;2023-02-11T09:36:21;4.43;;;2.73;;
44438;SDS011;30145;48.874;10.186;2023-02-11T09:38:54;3.30;;;2.57;;
44438;SDS011;30145;48.874;10.186;2023-02-11T09:41:24;4.27;;;2.77;;
44438;SDS011;30145;48.874;10.186;2023-02-11T09:43:59;5.63;;;3.30;;
44438;SDS011;30145;48.874;10.186;2023-02-11T09:46:32;5.47;;;3.67;;
44438;SDS011;30145;48.874;10.186;2023-02-11T09:49:02;7.27;;;4.10;;
44438;SDS011;30145;48.874;10.186;2023-02-11T09:51:51;7.13;;;3.80;;
44438;SDS011;30145;48.874;10.186;2023-02-11T09:57:40;4.80;;;3.60;;
44438;SDS011;30145;48.874;10.186;2023-02-11T10:11:42;9.40;;;5.57;;
44438;SDS011;30145;48.874;10.186;2023-02-11T10:23:16;7.57;;;6.10;;
44438;SDS011;30145;48.874;10.186;2023-02-11T10:25:52;10.30;;;6.83;;
44438;SDS011;30145;48.874;10.186;2023-02-11T10:28:43;10.63;;;6.57;;
44438;SDS011;30145;48.874;10.186;2023-02-11T10:31:12;10.13;;;6.70;;
44438;SDS011;30145;48.874;10.186;2023-02-11T10:33:45;10.90;;;6.13;;
44438;SDS011;30145;48.874;10.186;2023-02-11T10:36:16;8.13;;;5.90;;
44438;SDS011;30145;48.874;10.186;2023-02-11T10:38:44;9.50;;;6.43;;
44438;SDS011;30145;48.874;10.186;2023-02-11T10:41:27;7.47;;;5.47;;
44438;SDS011;30145;48.874;10.186;2023-02-11T10:44:01;7.33;;;5.70;;
44438;SDS011;30145;48.874;10.186;2023-02-11T10:46:32;7.57;;;5.63;;
44438;SDS011;30145;48.874;10.186;2023-02-11T10:49:08;7.57;;;4.97;;
44438;SDS011;30145;48.874;10.186;2023-02-11T10:51:45;8.83;;;5.73;;
44438;SDS011;30145;48.874;10.186;2023-02-11T10:54:18;7.83;;;5.97;;
44438;SDS011;30145;48.874;10.186;2023-02-11T10:56:57;8.97;;;6.27;;
44438;SDS011;30145;48.874;10.186;2023-02-11T10:59:29;7.70;;;5.53;;
44438;SDS011;30145;48.874;10.186;2023-02-11T11:02:16;7.43;;;5.93;;
44438;SDS011;30145;48.874;10.186;2023-02-11T11:05:06;7.13;;;5.47;;
44438;SDS011;30145;48.874;10.186;2023-02-11T11:08:04;10.53;;;5.90;;
44438;SDS011;30145;48.874;10.186;2023-02-11T11:10:36;10.13;;;6.97;;
44438;SDS011;30145;48.874;10.186;2023-02-11T11:13:33;10.10;;;7.23;;
44438;SDS011;30145;48.874;10.186;2023-02-11T11:16:35;11.97;;;7.70;;
44438;SDS011;30145;48.874;10.186;2023-02-11T11:21:35;16.60;;;13.03;;
44438;SDS011;30145;48.874;10.186;2023-02-11T11:24:13;15.00;;;11.77;;
44438;SDS011;30145;48.874;10.186;2023-02-11T11:26:50;13.87;;;9.47;;
44438;SDS011;30145;48.874;10.186;2023-02-11T11:29:20;15.63;;;11.37;;
44438;SDS011;30145;48.874;10.186;2023-02-11T11:31:53;17.27;;;11.80;;
44438;SDS011;30145;48.874;10.186;2023-02-11T11:34:33;14.87;;;10.90;;
44438;SDS011;30145;48.874;10.186;2023-02-11T11:37:12;15.70;;;10.73;;
44438;SDS011;30145;48.874;10.186;2023-02-11T11:42:29;15.97;;;10.57;;
44438;SDS011;30145;48.874;10.186;2023-02-11T11:44:58;18.80;;;12.37;;
44438;SDS011;30145;48.874;10.186;2023-02-11T11:58:47;13.70;;;10.10;;
44438;SDS011;30145;48.874;10.186;2023-02-11T12:01:30;17.23;;;10.03;;
44438;SDS011;30145;48.874;10.186;2023-02-11T12:17:46;15.37;;;11.17;;
44438;SDS011;30145;48.874;10.186;2023-02-11T12:28:57;17.43;;;10.57;;
44438;SDS011;30145;48.874;10.186;2023-02-11T12:34:15;12.80;;;9.53;;
44438;SDS011;30145;48.874;10.186;2023-02-11T12:36:54;15.60;;;9.83;;
44438;SDS011;30145;48.874;10.186;2023-02-11T12:55:50;10.87;;;9.23;;
44438;SDS011;30145;48.874;10.186;2023-02-11T12:58:21;14.13;;;10.43;;
44438;SDS011;30145;48.874;10.186;2023-02-11T13:01:06;13.80;;;9.63;;
44438;SDS011;30145;48.874;10.186;2023-02-11T13:03:42;13.10;;;9.07;;
44438;SDS011;30145;48.874;10.186;2023-02-11T13:06:16;13.33;;;9.67;;
44438;SDS011;30145;48.874;10.186;2023-02-11T13:08:51;12.40;;;9.37;;
44438;SDS011;30145;48.874;10.186;2023-02-11T13:11:28;12.43;;;9.83;;
44438;SDS011;30145;48.874;10.186;2023-02-11T13:16:46;15.10;;;10.50;;
44438;SDS011;30145;48.874;10.186;2023-02-11T13:19:25;11.37;;;8.73;;
44438;SDS011;30145;48.874;10.186;2023-02-11T13:38:30;18.10;;;13.27;;
44438;SDS011;30145;48.874;10.186;2023-02-11T13:43:42;27.07;;;17.80;;
44438;SDS011;30145;48.874;10.186;2023-02-11T13:46:10;17.97;;;12.60;;
44438;SDS011;30145;48.874;10.186;2023-02-11T13:48:44;15.83;;;10.67;;
44438;SDS011;30145;48.874;10.186;2023-02-11T13:51:13;28.93;;;20.47;;
44438;SDS011;30145;48.874;10.186;2023-02-11T13:53:46;19.30;;;13.43;;
44438;SDS011;30145;48.874;10.186;2023-02-11T13:59:03;15.57;;;10.27;;
44438;SDS011;30145;48.874;10.186;2023-02-11T14:08:15;16.50;;;11.97;;
44438;SDS011;30145;48.874;10.186;2023-02-11T14:11:07;18.20;;;12.67;;
44438;SDS011;30145;48.874;10.186;2023-02-11T14:16:15;16.63;;;11.17;;
44438;SDS011;30145;48.874;10.186;2023-02-11T14:18:58;14.83;;;10.37;;
44438;SDS011;30145;48.874;10.186;2023-02-11T14:29:17;15.17;;;10.73;;
44438;SDS011;30145;48.874;10.186;2023-02-11T14:31:59;13.90;;;10.40;;
44438;SDS011;30145;48.874;10.186;2023-02-11T14:43:10;13.17;;;9.67;;
44438;SDS011;30145;48.874;10.186;2023-02-11T14:45:38;14.50;;;10.50;;
44438;SDS011;30145;48.874;10.186;2023-02-11T14:48:15;19.20;;;11.07;;
44438;SDS011;30145;48.874;10.186;2023-02-11T14:50:48;14.60;;;10.23;;
44438;SDS011;30145;48.874;10.186;2023-02-11T14:53:23;12.77;;;10.20;;
44438;SDS011;30145;48.874;10.186;2023-02-11T14:55:51;15.37;;;11.67;;
44438;SDS011;30145;48.874;10.186;2023-02-11T14:58:20;17.90;;;11.87;;
44438;SDS011;30145;48.874;10.186;2023-02-11T15:00:51;14.53;;;10.83;;
44438;SDS011;30145;48.874;10.186;2023-02-11T15:05:58;16.97;;;10.60;;
44438;SDS011;30145;48.874;10.186;2023-02-11T15:08:27;17.70;;;12.73;;
44438;SDS011;30145;48.874;10.186;2023-02-11T15:10:56;17.27;;;12.90;;
44438;SDS011;30145;48.874;10.186;2023-02-11T15:13:24;14.73;;;11.93;;
44438;SDS011;30145;48.874;10.186;2023-02-11T15:15:57;15.20;;;10.70;;
44438;SDS011;30145;48.874;10.186;2023-02-11T15:18:39;17.73;;;12.03;;
44438;SDS011;30145;48.874;10.186;2023-02-11T15:21:07;14.90;;;11.83;;
44438;SDS011;30145;48.874;10.186;2023-02-11T15:23:35;16.10;;;11.60;;
44438;SDS011;30145;48.874;10.186;2023-02-11T15:26:11;18.60;;;12.73;;
44438;SDS011;30145;48.874;10.186;2023-02-11T15:28:43;26.97;;;16.43;;
44438;SDS011;30145;48.874;10.186;2023-02-11T15:31:18;28.97;;;17.57;;
44438;SDS011;30145;48.874;10.186;2023-02-11T15:33:46;21.27;;;13.50;;
44438;SDS011;30145;48.874;10.186;2023-02-11T15:36:14;17.33;;;13.03;;
44438;SDS011;30145;48.874;10.186;2023-02-11T15:38:41;17.27;;;13.53;;
44438;SDS011;30145;48.874;10.186;2023-02-11T15:41:26;14.77;;;11.07;;
44438;SDS011;30145;48.874;10.186;2023-02-11T15:43:59;23.23;;;12.97;;
44438;SDS011;30145;48.874;10.186;2023-02-11T15:46:29;19.37;;;12.23;;
44438;SDS011;30145;48.874;10.186;2023-02-11T15:49:01;18.27;;;12.07;;
44438;SDS011;30145;48.874;10.186;2023-02-11T15:51:32;16.07;;;11.50;;
44438;SDS011;30145;48.874;10.186;2023-02-11T15:54:14;15.50;;;11.43;;
44438;SDS011;30145;48.874;10.186;2023-02-11T15:56:45;20.87;;;12.67;;
44438;SDS011;30145;48.874;10.186;2023-02-11T15:59:24;22.53;;;14.70;;
44438;SDS011;30145;48.874;10.186;2023-02-11T16:01:53;39.17;;;23.77;;
44438;SDS011;30145;48.874;10.186;2023-02-11T16:04:21;94.07;;;47.37;;
44438;SDS011;30145;48.874;10.186;2023-02-11T16:06:50;24.07;;;14.83;;
44438;SDS011;30145;48.874;10.186;2023-02-11T16:14:22;21.77;;;14.40;;
44438;SDS011;30145;48.874;10.186;2023-02-11T16:16:54;17.73;;;11.97;;
44438;SDS011;30145;48.874;10.186;2023-02-11T16:19:23;18.40;;;12.47;;
44438;SDS011;30145;48.874;10.186;2023-02-11T16:21:52;18.30;;;11.47;;
44438;SDS011;30145;48.874;10.186;2023-02-11T16:27:00;19.57;;;12.63;;
44438;SDS011;30145;48.874;10.186;2023-02-11T16:29:29;18.83;;;13.10;;
44438;SDS011;30145;48.874;10.186;2023-02-11T16:32:08;21.00;;;14.37;;
44438;SDS011;30145;48.874;10.186;2023-02-11T16:34:36;17.53;;;13.47;;
44438;SDS011;30145;48.874;10.186;2023-02-11T16:37:04;18.47;;;12.30;;
44438;SDS011;30145;48.874;10.186;2023-02-11T16:39:31;18.67;;;12.30;;
44438;SDS011;30145;48.874;10.186;2023-02-11T16:41:59;17.80;;;11.83;;
44438;SDS011;30145;48.874;10.186;2023-02-11T16:44:27;25.03;;;15.93;;
44438;SDS011;30145;48.874;10.186;2023-02-11T16:46:55;36.67;;;20.90;;
44438;SDS011;30145;48.874;10.186;2023-02-11T16:51:53;37.50;;;21.87;;
44438;SDS011;30145;48.874;10.186;2023-02-11T16:54:22;30.07;;;17.83;;
44438;SDS011;30145;48.874;10.186;2023-02-11T16:56:49;22.33;;;14.47;;
44438;SDS011;30145;48.874;10.186;2023-02-11T16:59:16;20.67;;;14.63;;
44438;SDS011;30145;48.874;10.186;2023-02-11T17:01:43;47.27;;;25.27;;
44438;SDS011;30145;48.874;10.186;2023-02-11T17:04:22;37.67;;;20.50;;
44438;SDS011;30145;48.874;10.186;2023-02-11T17:06:51;31.27;;;18.30;;
44438;SDS011;30145;48.874;10.186;2023-02-11T17:09:19;28.30;;;16.53;;
44438;SDS011;30145;48.874;10.186;2023-02-11T17:11:51;23.33;;;15.03;;
44438;SDS011;30145;48.874;10.186;2023-02-11T17:14:18;21.50;;;14.57;;
44438;SDS011;30145;48.874;10.186;2023-02-11T17:16:46;19.60;;;13.07;;
44438;SDS011;30145;48.874;10.186;2023-02-11T17:19:14;18.17;;;11.93;;
44438;SDS011;30145;48.874;10.186;2023-02-11T17:21:43;18.10;;;12.23;;
44438;SDS011;30145;48.874;10.186;2023-02-11T17:24:11;21.47;;;14.37;;
44438;SDS011;30145;48.874;10.186;2023-02-11T17:26:41;30.97;;;20.27;;
44438;SDS011;30145;48.874;10.186;2023-02-11T17:29:09;23.80;;;18.47;;